»·PEaware :: N441PW CYCZ-ID56

N441PW :: CYCZ-ID56

FLIGHT INFORMATION

Flight Status: Arrived
Operator: Privately registered:
United States
More flights under this callsign
Pilot: Stacy K. (11621)
Aircraft: CESSNA 404 TITAN
(C404)
More flights by this aircraft type
Origin: CYCZ Fairmont Hot Springs
Canada
Destination: ID56 Star 's' Ranch
United States
More flights between these airports :: More routes between these airports
Route: IXC FCA V231 LKT
File this flight plan on PilotEdge
Remarks:
Altitude:
(Current/Filed)
16,500ft
Speed:
(Current/Filed)
190kts
Departed: 08-May-19 11:10 AM
Arrived: 08-May-19 01:08 PM
Distance/Time
Traveled:
388nm/1:58
Distance/Time
To Go:
Arrived

Flight Plot

Page will automatically refresh every two minutes.


Map Options




Map Legend


Flown Route
Filed Route
Departure Airport
Arrival Airport
Navaid (VOR, NDB)
Fix

Horizontal Profiles

Position Reports

Time Latitude Longitude Heading Altitude Ground
Speed
08-May-19 10:53 50.321761 -115.870358 339 2665ft 0kts
08-May-19 10:54 50.321761 -115.870358 339 2665ft 0kts
08-May-19 10:55 50.321761 -115.870358 339 2665ft 0kts
08-May-19 10:56 50.321761 -115.870358 339 2665ft 0kts
08-May-19 10:57 50.321761 -115.870358 339 2665ft 0kts
08-May-19 10:58 50.321761 -115.870358 339 2665ft 0kts
08-May-19 10:59 50.321761 -115.870358 339 2665ft 0kts
08-May-19 11:00 50.321761 -115.870358 339 2665ft 0kts
08-May-19 11:01 50.321761 -115.870358 339 2665ft 0kts
08-May-19 11:02 50.321761 -115.870358 339 2665ft 0kts
08-May-19 11:03 50.321761 -115.870358 339 2665ft 0kts
08-May-19 11:04 50.321761 -115.870358 339 2665ft 0kts
08-May-19 11:05 50.321761 -115.870359 339 2665ft 0kts
08-May-19 11:06 50.321762 -115.870359 339 2665ft 0kts
08-May-19 11:07 50.321762 -115.870359 339 2665ft 0kts
08-May-19 11:08 50.321764 -115.870360 339 2665ft 0kts
08-May-19 11:09 50.325036 -115.872538 350 2665ft 62kts
08-May-19 11:10 50.352170 -115.884377 315 3532ft 117kts
08-May-19 11:11 50.333523 -115.890242 141 4744ft 128kts
08-May-19 11:12 50.299211 -115.869923 171 5954ft 136kts
08-May-19 11:13 50.260697 -115.864170 174 6961ft 141kts
08-May-19 11:14 50.221101 -115.858993 174 7962ft 142kts
08-May-19 11:15 50.181806 -115.853840 174 8953ft 140kts
08-May-19 11:16 50.143356 -115.848792 174 9934ft 136kts
08-May-19 11:17 50.105899 -115.843875 174 10906ft 134kts
08-May-19 11:18 50.069514 -115.839107 175 11865ft 128kts
08-May-19 11:19 50.035057 -115.834585 174 12795ft 117kts
08-May-19 11:20 50.003346 -115.813554 136 12836ft 124kts
08-May-19 11:21 49.969402 -115.822057 189 13703ft 125kts
08-May-19 11:22 49.930214 -115.821004 175 14589ft 159kts
08-May-19 11:23 49.881437 -115.814703 175 15253ft 192kts
08-May-19 11:24 49.825380 -115.807485 175 15777ft 208kts
08-May-19 11:25 49.766543 -115.799871 175 16281ft 214kts
08-May-19 11:26 49.705981 -115.792084 175 16505ft 226kts
08-May-19 11:27 49.642011 -115.783901 175 16499ft 231kts
08-May-19 11:28 49.585580 -115.743177 138 16499ft 228kts
08-May-19 11:29 49.535504 -115.683054 138 16500ft 228kts
08-May-19 11:30 49.484918 -115.623214 138 16498ft 230kts
08-May-19 11:31 49.434283 -115.563711 138 16506ft 228kts
08-May-19 11:32 49.383956 -115.504726 139 16510ft 228kts
08-May-19 11:33 49.333569 -115.445804 139 16514ft 227kts
08-May-19 11:34 49.283435 -115.387365 139 16517ft 227kts
08-May-19 11:35 49.233152 -115.328874 139 16518ft 227kts
08-May-19 11:36 49.182744 -115.270404 139 16519ft 227kts
08-May-19 11:37 49.132595 -115.212390 139 16518ft 226kts
08-May-19 11:38 49.082216 -115.154260 139 16517ft 226kts
08-May-19 11:39 49.032178 -115.096673 139 16515ft 226kts
08-May-19 11:40 48.981848 -115.038903 139 16512ft 225kts
08-May-19 11:41 48.931677 -114.981462 139 16509ft 225kts
08-May-19 11:42 48.881514 -114.924177 140 16505ft 225kts
08-May-19 11:43 48.831367 -114.867062 139 16502ft 224kts
08-May-19 11:44 48.781613 -114.810534 140 16510ft 224kts
08-May-19 11:45 48.731620 -114.753883 140 16505ft 224kts
08-May-19 11:46 48.681550 -114.697289 140 16500ft 223kts
08-May-19 11:48 48.631858 -114.641263 140 16493ft 223kts
08-May-19 11:49 48.582056 -114.585256 140 16486ft 222kts
08-May-19 11:50 48.532619 -114.529795 140 16480ft 221kts
08-May-19 11:51 48.483145 -114.474429 140 16476ft 221kts
08-May-19 11:52 48.433759 -114.419311 140 16472ft 220kts
08-May-19 11:53 48.384588 -114.364559 140 16470ft 219kts
08-May-19 11:54 48.340501 -114.315582 140 16468ft 219kts
08-May-19 11:55 48.291740 -114.261544 140 16469ft 219kts
08-May-19 11:56 48.242837 -114.207474 141 16468ft 218kts
08-May-19 11:57 48.187822 -114.173534 176 16471ft 220kts
08-May-19 11:58 48.126584 -114.169366 177 16469ft 220kts
08-May-19 11:59 48.065586 -114.165111 176 16470ft 220kts
08-May-19 12:00 48.004379 -114.160726 176 16499ft 219kts
08-May-19 12:01 47.943384 -114.156344 176 16500ft 220kts
08-May-19 12:02 47.882357 -114.151976 176 16501ft 220kts
08-May-19 12:03 47.821063 -114.147601 176 16501ft 220kts
08-May-19 12:04 47.759834 -114.143240 176 16501ft 220kts
08-May-19 12:05 47.698596 -114.138887 176 16500ft 220kts
08-May-19 12:06 47.637158 -114.134532 176 16499ft 221kts
08-May-19 12:06 47.585881 -114.130904 176 16497ft 221kts
08-May-19 12:08 47.514261 -114.125850 176 16495ft 221kts
08-May-19 12:09 47.452820 -114.121525 176 16491ft 222kts
08-May-19 12:09 47.401363 -114.117911 176 16480ft 222kts
08-May-19 12:11 47.329198 -114.112865 176 16499ft 221kts
08-May-19 12:12 47.267595 -114.108552 176 16497ft 222kts
08-May-19 12:12 47.216190 -114.104934 176 16496ft 221kts
08-May-19 12:14 47.144639 -114.099940 176 16495ft 220kts
08-May-19 12:14 47.093582 -114.096394 176 16497ft 221kts
08-May-19 12:15 47.031997 -114.092127 176 16496ft 221kts
08-May-19 12:16 46.970489 -114.087884 176 16496ft 221kts
08-May-19 12:17 46.911549 -114.083811 176 16495ft 222kts
08-May-19 12:18 46.849885 -114.083140 180 16495ft 222kts
08-May-19 12:19 46.787785 -114.083572 179 16495ft 222kts
08-May-19 12:20 46.725857 -114.083628 179 16494ft 223kts
08-May-19 12:21 46.663828 -114.083647 179 16492ft 223kts
08-May-19 12:22 46.601967 -114.083677 179 16491ft 223kts
08-May-19 12:23 46.539594 -114.083696 179 16489ft 223kts
08-May-19 12:24 46.477372 -114.083715 179 16486ft 223kts
08-May-19 12:25 46.415171 -114.083727 179 16484ft 224kts
08-May-19 12:26 46.352639 -114.083746 179 16481ft 224kts
08-May-19 12:27 46.290207 -114.083765 179 16478ft 224kts
08-May-19 12:28 46.227833 -114.083791 179 16475ft 224kts
08-May-19 12:29 46.165269 -114.083808 179 16472ft 224kts
08-May-19 12:30 46.102961 -114.083829 179 16482ft 224kts
08-May-19 12:31 46.040550 -114.083846 179 16478ft 224kts
08-May-19 12:32 45.977913 -114.083867 179 16475ft 224kts
08-May-19 12:33 45.915579 -114.083883 179 16471ft 224kts
08-May-19 12:34 45.853023 -114.083901 179 16468ft 224kts
08-May-19 12:35 45.790505 -114.083920 179 16465ft 224kts
08-May-19 12:36 45.728039 -114.083951 179 16462ft 224kts
08-May-19 12:37 45.665544 -114.083973 179 16459ft 224kts
08-May-19 12:38 45.603116 -114.083980 179 16457ft 224kts
08-May-19 12:39 45.540490 -114.083997 179 16454ft 224kts
08-May-19 12:40 45.492111 -114.084036 179 16452ft 224kts
08-May-19 12:41 45.430142 -114.084104 179 16498ft 223kts
08-May-19 12:42 45.367356 -114.084083 179 16497ft 225kts
08-May-19 12:43 45.304633 -114.084070 179 16495ft 225kts
08-May-19 12:44 45.241917 -114.084087 179 16494ft 225kts
08-May-19 12:45 45.179189 -114.084111 179 16497ft 225kts
08-May-19 12:46 45.116440 -114.084137 179 16499ft 226kts
08-May-19 12:47 45.053226 -114.084145 179 16498ft 226kts
08-May-19 12:48 44.990209 -114.083380 177 16496ft 227kts
08-May-19 12:49 44.930544 -114.080699 177 16494ft 227kts
08-May-19 12:50 44.863615 -114.077945 177 16491ft 227kts
08-May-19 12:51 44.800448 -114.075473 177 16488ft 227kts
08-May-19 12:52 44.736946 -114.073001 177 16484ft 227kts
08-May-19 12:53 44.673553 -114.070530 177 16482ft 227kts
08-May-19 12:54 44.610418 -114.068075 177 16481ft 227kts
08-May-19 12:55 44.546936 -114.065664 177 16480ft 228kts
08-May-19 12:56 44.482226 -114.063132 177 16085ft 238kts
08-May-19 12:57 44.415514 -114.060096 174 15410ft 239kts
08-May-19 12:58 44.349874 -114.048515 171 14737ft 237kts
08-May-19 12:59 44.286667 -114.025463 156 13999ft 236kts
08-May-19 13:00 44.224990 -113.991756 156 12864ft 239kts
08-May-19 13:01 44.163774 -113.958008 156 11268ft 234kts
08-May-19 13:02 44.104244 -113.924551 156 9670ft 228kts
08-May-19 13:03 44.046853 -113.895435 185 8775ft 190kts
08-May-19 13:04 44.017491 -113.942604 246 7679ft 148kts
08-May-19 13:05 44.006672 -113.991684 256 7626ft 134kts
08-May-19 13:06 43.990069 -114.033752 219 6801ft 113kts
08-May-19 13:07 43.978408 -114.049457 237 6751ft 9kts
08-May-19 13:08 43.978705 -114.050265 28 6745ft 0kts
08-May-19 13:09 43.978705 -114.050265 28 6745ft 0kts
08-May-19 13:10 43.978705 -114.050265 28 6745ft 0kts
08-May-19 13:11 43.978705 -114.050265 28 6745ft 0kts
08-May-19 13:12 43.978705 -114.050265 28 6745ft 0kts
08-May-19 13:13 43.978705 -114.050265 28 6745ft 0kts

Navigation Log

Ident Type
Flight plan parsing failed, navigation log unavailable